AKST,Max TemperatureF,Mean TemperatureF,Min TemperatureF,Max Dew PointF,MeanDew PointF,Min DewpointF,Max Humidity, Mean Humidity, Min Humidity, Max Sea Level PressureIn, Mean Sea Level PressureIn, Min Sea Level PressureIn, Max VisibilityMiles, Mean VisibilityMiles, Min VisibilityMiles, Max Wind SpeedMPH, Mean Wind SpeedMPH, Max Gust SpeedMPH,PrecipitationIn, CloudCover, Events, WindDirDegrees
2011-12-1,33,29,25,32,27,13,100,86,55,29.91,29.67,29.51,10,9,4,24,8,28,0.00,6,Rain-Snow,209
2011-12-2,35,30,24,32,30,17,100,95,63,30.25,30.01,29.86,10,5,0,15,6,,0.05,6,Fog-Rain-Snow,272
2011-12-3,37,30,22,34,26,19,100,90,81,30.25,30.11,29.86,10,10,8,18,10,,0.13,5,Rain,343
2011-12-4,53,44,33,34,29,20,83,62,40,29.89,29.69,29.54,10,10,5,34,17,53,0.09,3,Rain,186
2011-12-5,31,28,26,20,18,16,71,65,59,30.38,30.15,29.91,10,10,10,24,17,29,0.00,1,,188
2011-12-6,32,24,15,23,19,12,89,74,61,30.47,30.43,30.38,10,10,8,14,7,,0.00,4,Snow,186
2011-12-7,30,24,17,25,21,14,93,85,77,30.41,30.04,29.88,10,10,6,20,12,20,0.00,4,Snow,347
2011-12-8,28,26,24,27,25,23,100,91,86,29.88,29.80,29.77,10,8,2,16,6,,0.00,8,Snow,20
2011-12-9,32,27,19,30,27,18,100,94,81,30.08,29.91,29.79,10,6,0,13,2,,0.02,7,Fog-Rain-Snow,183
2011-12-10,41,28,14,22,18,10,100,90,45,30.12,30.00,29.60,10,5,0,28,3,40,0.00,6,Fog-Rain-Snow,46
2011-12-11,43,35,27,32,29,21,100,81,42,29.69,29.10,28.75,10,8,1,26,12,58,0.24,6,Rain-Snow,356
2011-12-12,33,27,21,32,30,17,100,96,72,29.73,29.18,28.87,10,4,1,20,7,,0.36,7,Rain-Snow,200
2011-12-13,25,20,15,25,20,12,100,92,74,29.77,29.74,29.70,10,7,1,8,2,,0.01,8,Snow,41
2011-12-14,18,15,12,16,13,10,93,89,86,29.75,29.71,29.59,10,9,2,9,4,,0.00,6,Rain-Snow,33
2011-12-15,35,24,13,26,18,11,92,85,57,29.59,29.33,29.18,10,10,10,12,4,,0.00,2,,47
2011-12-16,37,30,23,28,24,20,96,80,52,29.47,29.44,29.42,10,10,10,13,4,,0.00,2,Rain,335
2011-12-17,38,30,24,28,24,20,89,78,57,29.53,29.49,29.37,10,10,4,17,6,,0.00,5,Snow,340
2011-12-18,42,38,34,32,28,21,85,68,42,29.34,29.00,28.78,10,10,4,40,14,47,0.06,4,Rain-Snow,161
2011-12-19,36,30,25,27,23,15,100,81,53,29.61,29.53,29.28,10,6,0,29,11,45,0.02,5,Fog-Snow,133
2011-12-20,41,34,27,32,28,16,100,87,45,29.78,29.53,29.35,10,6,1,30,7,45,0.19,7,Rain-Snow,177
2011-12-21,35,26,17,32,21,11,100,73,47,29.68,29.53,29.36,10,10,5,32,14,45,0.04,3,Rain-Snow,174
2011-12-22,23,20,18,23,18,14,100,88,78,29.57,29.08,28.98,10,3,0,13,6,,0.15,7,Fog-Snow,193
2011-12-23,21,17,10,19,17,7,93,87,76,29.57,29.32,29.08,10,6,1,10,4,,0.04,7,Snow,33
2011-12-24,14,10,7,10,7,3,92,86,84,29.60,29.47,29.25,10,6,1,9,5,,0.01,8,Snow,12
2011-12-25,17,6,-5,14,7,-11,93,84,73,29.55,29.35,29.17,10,6,2,13,2,,0.05,7,Snow,188
2011-12-26,17,11,5,12,6,3,92,84,79,29.53,29.29,28.95,10,10,10,14,6,,0.00,5,,21
2011-12-27,19,15,10,14,11,7,92,86,77,29.26,29.18,28.91,10,3,0,16,6,,0.03,8,Fog-Snow,205
2011-12-28,12,10,7,9,6,-3,92,83,59,29.19,29.13,29.09,10,8,2,7,1,,0.00,8,Snow,7
2011-12-29,9,6,3,3,1,-1,85,80,66,29.40,29.35,29.17,10,8,2,10,5,,0.00,8,Snow,21
2011-12-30,6,0,-7,2,-2,-11,85,81,77,29.64,29.42,29.31,10,7,2,13,3,,0.00,7,Snow,33
2011-12-31,5,2,0,0,-3,-4,85,81,78,29.96,29.86,29.65,10,6,1,12,6,,0.00,8,Rain-Snow,354